createdAt,value
2022-08-25T00:00:16.198Z,20.15
2022-08-25T00:02:54.985Z,20.12
2022-08-25T00:05:32.454Z,20.15
2022-08-25T00:08:05.387Z,20.21
2022-08-25T00:10:35.807Z,20.19
2022-08-25T00:13:06.132Z,20.15
2022-08-25T00:15:35.175Z,19.98
2022-08-25T00:18:03.012Z,19.94
2022-08-25T00:20:31.460Z,19.91
2022-08-25T00:22:59.706Z,19.92
2022-08-25T00:25:27.721Z,19.90
2022-08-25T00:27:57.767Z,19.88
2022-08-25T00:30:27.202Z,19.86
2022-08-25T00:32:56.903Z,19.85
2022-08-25T00:35:26.856Z,19.84
2022-08-25T00:37:54.968Z,19.82
2022-08-25T00:40:24.889Z,19.79
2022-08-25T00:42:53.828Z,19.78
2022-08-25T00:45:21.693Z,19.76
2022-08-25T00:47:49.981Z,19.74
2022-08-25T00:50:19.263Z,19.71
2022-08-25T00:52:50.225Z,19.72
2022-08-25T00:55:21.045Z,19.77
2022-08-25T00:57:52.528Z,19.78
2022-08-25T01:00:24.775Z,19.86
2022-08-25T01:02:52.614Z,19.83
2022-08-25T01:05:20.735Z,19.71
2022-08-25T01:07:50.725Z,19.66
2022-08-25T01:10:21.346Z,19.64
2022-08-25T01:12:49.998Z,19.59
2022-08-25T01:15:18.107Z,19.56
2022-08-25T01:17:51.611Z,19.56
2022-08-25T01:20:22.038Z,19.57
2022-08-25T01:22:55.282Z,19.56
2022-08-25T01:25:33.529Z,19.57
2022-08-25T01:28:01.872Z,19.57
2022-08-25T01:30:29.975Z,19.56
2022-08-25T01:32:57.583Z,19.56
2022-08-25T01:35:25.308Z,19.55
2022-08-25T01:37:53.605Z,19.51
2022-08-25T01:40:22.527Z,19.50
2022-08-25T01:43:02.775Z,19.48
2022-08-25T01:45:30.345Z,19.46
2022-08-25T01:47:58.084Z,19.44
2022-08-25T01:50:26.032Z,19.42
2022-08-25T01:52:59.293Z,19.40
2022-08-25T01:55:27.106Z,19.43
2022-08-25T01:57:54.975Z,19.48
2022-08-25T02:00:26.168Z,19.46
2022-08-25T02:02:54.256Z,19.39
2022-08-25T02:05:25.470Z,19.37
2022-08-25T02:07:53.002Z,19.35
2022-08-25T02:10:22.014Z,19.35
2022-08-25T02:12:51.039Z,19.33
2022-08-25T02:15:22.297Z,19.33
2022-08-25T02:17:50.245Z,19.31
2022-08-25T02:20:18.539Z,19.26
2022-08-25T02:22:56.520Z,19.22
2022-08-25T02:25:24.973Z,19.21
2022-08-25T02:27:55.091Z,19.20
2022-08-25T02:30:22.942Z,19.19
2022-08-25T02:32:51.247Z,19.20
2022-08-25T02:35:19.546Z,19.17
2022-08-25T02:37:48.376Z,19.17
2022-08-25T02:40:16.606Z,19.14
2022-08-25T02:42:44.333Z,19.12
2022-08-25T02:45:12.051Z,19.11
2022-08-25T02:47:39.791Z,19.11
2022-08-25T02:50:09.245Z,19.10
2022-08-25T02:52:37.899Z,19.10
2022-08-25T02:55:12.208Z,19.08
2022-08-25T02:57:41.397Z,19.06
2022-08-25T03:00:12.903Z,19.07
2022-08-25T03:02:41.154Z,19.05
2022-08-25T03:05:11.171Z,19.03
2022-08-25T03:07:39.132Z,18.99
2022-08-25T03:10:11.693Z,18.98
2022-08-25T03:12:41.369Z,18.98
2022-08-25T03:15:13.161Z,18.97
2022-08-25T03:17:41.151Z,18.95
2022-08-25T03:20:13.766Z,18.96
2022-08-25T03:22:42.164Z,18.97
2022-08-25T03:25:29.059Z,18.92
2022-08-25T03:27:57.793Z,18.84
2022-08-25T03:30:25.558Z,18.84
2022-08-25T03:32:53.158Z,18.86
2022-08-25T03:35:21.433Z,18.88
2022-08-25T03:37:50.912Z,18.91
2022-08-25T03:40:18.652Z,18.91
2022-08-25T03:42:46.542Z,18.89
2022-08-25T03:45:16.199Z,18.91
2022-08-25T03:47:49.129Z,18.92
2022-08-25T03:50:19.107Z,18.91
2022-08-25T03:52:51.682Z,18.90
2022-08-25T03:55:19.887Z,18.91
2022-08-25T03:57:47.822Z,18.88
2022-08-25T04:00:16.087Z,18.83
2022-08-25T04:02:44.676Z,18.86
2022-08-25T04:05:14.206Z,18.87
2022-08-25T04:07:43.547Z,18.87
2022-08-25T04:10:12.208Z,18.86
2022-08-25T04:12:39.847Z,18.89
2022-08-25T04:15:10.283Z,18.88
2022-08-25T04:17:39.555Z,18.85
2022-08-25T04:20:14.128Z,18.84
2022-08-25T04:22:44.992Z,18.83
2022-08-25T04:25:13.348Z,18.85
2022-08-25T04:27:41.359Z,18.84
2022-08-25T04:30:12.171Z,18.79
2022-08-25T04:32:39.786Z,18.77
2022-08-25T04:35:09.016Z,18.77
2022-08-25T04:37:36.674Z,18.76
2022-08-25T04:40:06.008Z,18.79
2022-08-25T04:42:34.215Z,18.86
2022-08-25T04:45:03.403Z,18.88
2022-08-25T04:47:31.032Z,18.90
2022-08-25T04:49:58.662Z,18.91
2022-08-25T04:52:26.454Z,18.91
2022-08-25T04:54:54.746Z,18.88
2022-08-25T04:57:24.609Z,18.87
2022-08-25T04:59:52.403Z,18.89
2022-08-25T05:02:20.102Z,18.91
2022-08-25T05:04:49.064Z,18.94
2022-08-25T05:07:16.873Z,18.96
2022-08-25T05:09:44.488Z,18.96
2022-08-25T05:12:12.781Z,18.99
2022-08-25T05:14:43.257Z,19.00
2022-08-25T05:17:11.016Z,19.01
2022-08-25T05:19:38.649Z,19.03
2022-08-25T05:22:06.502Z,19.05
2022-08-25T05:24:34.197Z,19.07
2022-08-25T05:27:03.552Z,19.09
2022-08-25T05:29:33.696Z,19.12
2022-08-25T05:32:01.403Z,19.14
2022-08-25T05:34:29.600Z,19.15
2022-08-25T05:36:59.405Z,19.17
2022-08-25T05:39:27.510Z,19.19
2022-08-25T05:41:55.166Z,19.20
2022-08-25T05:44:22.843Z,19.24
2022-08-25T05:46:51.090Z,19.29
2022-08-25T05:49:21.797Z,19.33
2022-08-25T05:51:51.562Z,19.39
2022-08-25T05:54:19.627Z,19.47
2022-08-25T05:56:47.258Z,19.50
2022-08-25T05:59:14.993Z,19.54
2022-08-25T06:02:01.462Z,19.61
2022-08-25T06:04:29.193Z,19.67
2022-08-25T06:06:56.883Z,19.70
2022-08-25T06:09:24.825Z,19.77
2022-08-25T06:11:54.879Z,19.84
2022-08-25T06:14:23.980Z,19.90
2022-08-25T06:16:52.265Z,19.94
2022-08-25T06:19:20.571Z,19.96
2022-08-25T06:21:48.587Z,19.98
2022-08-25T06:24:16.529Z,20.00
2022-08-25T06:26:44.089Z,20.00
2022-08-25T06:29:13.410Z,20.03
2022-08-25T06:31:41.912Z,20.04
2022-08-25T06:34:10.769Z,20.06
2022-08-25T06:36:38.575Z,20.08
2022-08-25T06:39:06.580Z,20.10
2022-08-25T06:41:37.071Z,20.12
2022-08-25T06:44:05.891Z,20.14
2022-08-25T06:46:35.733Z,20.15
2022-08-25T06:49:05.955Z,20.18
2022-08-25T06:51:35.391Z,20.19
2022-08-25T06:54:03.854Z,20.20
2022-08-25T06:56:31.491Z,20.22
2022-08-25T06:59:00.243Z,20.25
2022-08-25T07:01:27.880Z,20.27
2022-08-25T07:03:57.452Z,20.29
2022-08-25T07:06:26.466Z,20.32
2022-08-25T07:08:54.615Z,20.36
2022-08-25T07:11:22.360Z,20.40
2022-08-25T07:13:51.125Z,20.42
2022-08-25T07:16:20.512Z,20.51
2022-08-25T07:18:49.196Z,20.58
2022-08-25T07:21:20.632Z,20.64
2022-08-25T07:23:51.820Z,20.70
2022-08-25T07:26:36.934Z,20.79
2022-08-25T07:29:12.592Z,20.89
2022-08-25T07:31:40.544Z,20.98
2022-08-25T07:34:28.504Z,21.10
2022-08-25T07:36:57.089Z,21.18
2022-08-25T07:39:25.677Z,21.23
2022-08-25T07:41:53.846Z,21.32
2022-08-25T07:44:22.462Z,21.41
2022-08-25T07:46:51.340Z,21.52
2022-08-25T07:49:23.313Z,21.63
2022-08-25T07:52:05.564Z,21.69
2022-08-25T07:54:35.746Z,21.79
2022-08-25T07:57:08.539Z,21.86
2022-08-25T07:59:40.454Z,21.90
2022-08-25T08:02:18.349Z,21.97
2022-08-25T08:04:49.527Z,22.02
2022-08-25T08:07:19.371Z,22.10
2022-08-25T08:09:55.790Z,22.15
2022-08-25T08:12:28.168Z,22.19
2022-08-25T08:14:55.871Z,22.24
2022-08-25T08:17:23.572Z,22.32
2022-08-25T08:19:51.769Z,22.39
2022-08-25T08:22:20.249Z,22.47
2022-08-25T08:24:54.120Z,22.55
2022-08-25T08:27:24.274Z,22.62
2022-08-25T08:29:52.940Z,22.71
2022-08-25T08:32:21.484Z,22.77
2022-08-25T08:34:53.511Z,22.82
2022-08-25T08:37:22.995Z,22.93
2022-08-25T08:39:51.952Z,23.01
2022-08-25T08:42:39.039Z,23.13
2022-08-25T08:45:20.610Z,23.18
2022-08-25T08:48:15.708Z,23.19
2022-08-25T08:50:55.919Z,23.23
2022-08-25T08:53:33.998Z,23.26
2022-08-25T08:56:11.780Z,23.33
2022-08-25T08:58:44.394Z,23.37
2022-08-25T09:01:17.465Z,23.41
2022-08-25T09:03:55.185Z,23.45
2022-08-25T09:06:31.935Z,23.47
2022-08-25T09:09:04.087Z,23.50
2022-08-25T09:11:50.942Z,23.52
2022-08-25T09:14:33.493Z,23.57
2022-08-25T09:17:08.342Z,23.67
2022-08-25T09:20:02.051Z,23.70
2022-08-25T09:22:47.881Z,23.76
2022-08-25T09:25:39.823Z,23.79
2022-08-25T09:28:18.632Z,23.83
2022-08-25T09:30:53.079Z,23.85
2022-08-25T09:33:23.281Z,23.85
2022-08-25T09:35:53.587Z,23.86
2022-08-25T09:38:22.012Z,23.88
2022-08-25T09:40:51.972Z,23.90
2022-08-25T09:43:23.507Z,23.92
2022-08-25T09:46:00.310Z,23.93
2022-08-25T09:48:39.786Z,23.93
2022-08-25T09:51:18.528Z,23.94
2022-08-25T09:53:53.532Z,23.95
2022-08-25T09:56:23.965Z,23.99
2022-08-25T09:58:54.689Z,24.02
2022-08-25T10:01:24.558Z,24.07
2022-08-25T10:03:59.107Z,24.12
2022-08-25T10:06:29.672Z,24.19
2022-08-25T10:09:01.504Z,24.25
2022-08-25T10:11:37.359Z,24.31
2022-08-25T10:14:17.760Z,24.36
2022-08-25T10:16:46.883Z,24.39
2022-08-25T10:19:24.863Z,24.42
2022-08-25T10:22:06.167Z,24.45
2022-08-25T10:24:35.082Z,24.51
2022-08-25T10:27:14.749Z,24.58
2022-08-25T10:29:58.791Z,24.66
2022-08-25T10:32:37.041Z,24.73
2022-08-25T10:35:12.183Z,24.81
2022-08-25T10:37:48.743Z,24.87
2022-08-25T10:40:24.708Z,24.94
2022-08-25T10:43:06.684Z,25.02
2022-08-25T10:45:43.267Z,25.11
2022-08-25T10:48:25.236Z,25.18
2022-08-25T10:51:00.222Z,25.25
2022-08-25T10:53:41.716Z,25.33
2022-08-25T10:56:16.632Z,25.40
2022-08-25T10:59:09.867Z,25.48
2022-08-25T11:01:53.450Z,25.54
2022-08-25T11:04:27.380Z,25.57
2022-08-25T11:06:58.990Z,25.61
2022-08-25T11:09:33.110Z,25.66
2022-08-25T11:12:09.251Z,25.71
2022-08-25T11:14:40.371Z,25.76
2022-08-25T11:17:15.835Z,25.82
2022-08-25T11:19:48.766Z,25.84
2022-08-25T11:22:21.105Z,25.83
2022-08-25T11:25:00.809Z,25.86
2022-08-25T11:27:38.056Z,25.91
2022-08-25T11:30:10.116Z,25.98
2022-08-25T11:32:39.808Z,26.01
2022-08-25T11:35:12.141Z,26.04
2022-08-25T11:37:53.408Z,26.13
2022-08-25T11:40:36.862Z,26.21
2022-08-25T11:43:21.751Z,26.28
2022-08-25T11:46:07.155Z,26.33
2022-08-25T11:48:50.642Z,26.40
2022-08-25T11:51:33.846Z,26.47
2022-08-25T11:54:24.541Z,26.54
2022-08-25T11:56:56.599Z,26.66
2022-08-25T12:00:06.391Z,26.75
2022-08-25T12:02:38.412Z,26.90
2022-08-25T12:05:08.687Z,27.01
2022-08-25T12:08:28.539Z,27.10
2022-08-25T12:10:59.427Z,27.17
2022-08-25T12:13:42.966Z,27.18
2022-08-25T12:16:42.091Z,27.22
2022-08-25T12:19:29.448Z,27.27
2022-08-25T12:22:18.540Z,27.31
2022-08-25T12:24:52.941Z,27.34
2022-08-25T12:27:28.953Z,27.41
2022-08-25T12:30:13.252Z,27.50
2022-08-25T12:33:04.145Z,27.60
2022-08-25T12:35:37.260Z,27.74
2022-08-25T12:38:10.074Z,27.79
2022-08-25T12:40:58.362Z,27.75
2022-08-25T12:43:37.665Z,27.67
2022-08-25T12:46:34.689Z,27.59
2022-08-25T12:49:04.673Z,27.51
2022-08-25T12:51:54.081Z,27.54
2022-08-25T12:54:32.162Z,27.53
2022-08-25T12:57:03.612Z,27.63
2022-08-25T12:59:39.500Z,27.76
2022-08-25T13:02:39.277Z,27.84
2022-08-25T13:05:33.561Z,27.95
2022-08-25T13:08:33.863Z,28.10
2022-08-25T13:11:10.868Z,28.29
2022-08-25T13:13:48.477Z,28.52
2022-08-25T13:16:22.897Z,28.68
2022-08-25T13:18:58.309Z,28.70
2022-08-25T13:21:33.187Z,28.71
2022-08-25T13:24:06.081Z,28.63
2022-08-25T13:26:47.137Z,28.52
2022-08-25T13:29:20.785Z,28.46
2022-08-25T13:31:56.395Z,28.47
2022-08-25T13:34:34.469Z,28.39
2022-08-25T13:37:26.371Z,28.41
2022-08-25T13:40:10.262Z,28.48
2022-08-25T13:42:42.467Z,28.63
2022-08-25T13:45:17.185Z,28.80
2022-08-25T13:47:46.640Z,28.96
2022-08-25T13:50:30.249Z,29.07
2022-08-25T13:53:00.457Z,29.07
2022-08-25T13:55:50.568Z,29.13
2022-08-25T13:58:24.943Z,29.23
2022-08-25T14:01:22.861Z,29.24
2022-08-25T14:04:23.588Z,29.15
2022-08-25T14:07:13.143Z,29.03
2022-08-25T14:09:48.862Z,29.18
2022-08-25T14:12:32.518Z,29.34
2022-08-25T14:15:04.583Z,29.43
2022-08-25T14:17:39.315Z,29.47
2022-08-25T14:20:18.493Z,29.41
2022-08-25T14:22:46.547Z,29.29
2022-08-25T14:25:14.727Z,29.16
2022-08-25T14:28:03.567Z,29.04
2022-08-25T14:30:35.424Z,28.87
2022-08-25T14:33:04.752Z,28.82
2022-08-25T14:35:34.949Z,28.96
2022-08-25T14:38:07.179Z,29.11
2022-08-25T14:40:35.257Z,29.27
2022-08-25T14:43:02.925Z,29.37
2022-08-25T14:45:31.645Z,29.49
2022-08-25T14:48:05.126Z,29.54
2022-08-25T14:50:41.213Z,29.56
2022-08-25T14:53:11.506Z,29.58
2022-08-25T14:55:39.727Z,29.46
2022-08-25T14:58:07.901Z,29.29
2022-08-25T15:00:40.586Z,29.12
2022-08-25T15:03:10.125Z,29.03
2022-08-25T15:05:38.405Z,28.96
2022-08-25T15:08:31.120Z,28.91
2022-08-25T15:11:00.690Z,28.89
2022-08-25T15:13:29.288Z,28.95
2022-08-25T15:15:58.202Z,29.03
2022-08-25T15:18:26.055Z,29.08
2022-08-25T15:20:53.697Z,29.12
2022-08-25T15:23:21.578Z,29.14
2022-08-25T15:25:52.777Z,29.14
2022-08-25T15:28:22.536Z,29.16
2022-08-25T15:30:50.525Z,29.10
2022-08-25T15:33:21.040Z,29.05
2022-08-25T15:35:49.954Z,28.96
2022-08-25T15:38:18.145Z,28.94
2022-08-25T15:40:48.500Z,28.91
2022-08-25T15:43:16.542Z,28.84
2022-08-25T15:45:44.377Z,28.67
2022-08-25T15:48:14.119Z,28.55
2022-08-25T15:50:42.532Z,28.51
2022-08-25T15:53:10.662Z,28.42
2022-08-25T15:55:40.165Z,28.34
2022-08-25T15:58:08.846Z,28.19
2022-08-25T16:00:37.871Z,28.10
2022-08-25T16:03:07.165Z,28.03
2022-08-25T16:05:36.424Z,27.97
2022-08-25T16:08:05.765Z,27.90
2022-08-25T16:10:38.798Z,27.82
2022-08-25T16:13:08.882Z,27.70
2022-08-25T16:15:37.866Z,27.62
2022-08-25T16:18:06.804Z,27.61
2022-08-25T16:20:36.361Z,27.59
2022-08-25T16:23:04.700Z,27.56
2022-08-25T16:25:33.479Z,27.56
2022-08-25T16:28:04.749Z,27.59
2022-08-25T16:30:32.471Z,27.59
2022-08-25T16:33:00.294Z,27.53
2022-08-25T16:35:28.731Z,27.47
2022-08-25T16:37:57.098Z,27.40
2022-08-25T16:40:27.289Z,27.38
2022-08-25T16:42:55.160Z,27.33
2022-08-25T16:45:23.121Z,27.27
2022-08-25T16:47:51.160Z,27.19
2022-08-25T16:50:19.245Z,27.16
2022-08-25T16:53:07.991Z,27.12
2022-08-25T16:55:39.235Z,27.08
2022-08-25T16:58:08.854Z,27.07
2022-08-25T17:00:41.412Z,27.11
2022-08-25T17:03:12.363Z,27.15
2022-08-25T17:05:43.228Z,27.12
2022-08-25T17:08:28.883Z,27.04
2022-08-25T17:11:05.352Z,26.93
2022-08-25T17:13:35.589Z,26.89
2022-08-25T17:16:05.086Z,26.83
2022-08-25T17:18:33.226Z,26.75
2022-08-25T17:21:05.104Z,26.70
2022-08-25T17:23:33.665Z,26.64
2022-08-25T17:26:02.267Z,26.59
2022-08-25T17:28:30.867Z,26.57
2022-08-25T17:31:00.218Z,26.54
2022-08-25T17:33:28.086Z,26.51
2022-08-25T17:35:57.325Z,26.49
2022-08-25T17:38:26.741Z,26.47
2022-08-25T17:40:59.820Z,26.44
2022-08-25T17:43:29.276Z,26.38
2022-08-25T17:45:57.387Z,26.31
2022-08-25T17:48:26.194Z,26.26
2022-08-25T17:50:55.237Z,26.21
2022-08-25T17:53:22.885Z,26.13
2022-08-25T17:55:58.637Z,26.04
2022-08-25T17:58:28.336Z,25.94
2022-08-25T18:00:57.598Z,25.88
2022-08-25T18:03:29.473Z,25.79
2022-08-25T18:05:59.489Z,25.71
2022-08-25T18:08:35.166Z,25.65
2022-08-25T18:11:04.738Z,25.62
2022-08-25T18:13:35.833Z,25.61
2022-08-25T18:16:07.962Z,25.55
2022-08-25T18:18:37.121Z,25.47
2022-08-25T18:21:05.792Z,25.39
2022-08-25T18:23:35.279Z,25.36
2022-08-25T18:26:02.998Z,25.38
2022-08-25T18:28:31.628Z,25.38
2022-08-25T18:30:59.618Z,25.38
2022-08-25T18:33:29.932Z,25.37
2022-08-25T18:35:58.975Z,25.39
2022-08-25T18:38:58.022Z,25.39
2022-08-25T18:41:28.200Z,25.36
2022-08-25T18:43:56.333Z,25.34
2022-08-25T18:46:24.340Z,25.33
2022-08-25T18:48:55.023Z,25.32
2022-08-25T18:51:23.431Z,25.30
2022-08-25T18:53:54.659Z,25.28
2022-08-25T18:56:29.209Z,25.24
2022-08-25T18:58:59.931Z,25.17
2022-08-25T19:01:29.505Z,25.11
2022-08-25T19:04:00.377Z,25.09
2022-08-25T19:06:30.521Z,25.06
2022-08-25T19:09:02.509Z,25.02
2022-08-25T19:11:31.212Z,24.97
2022-08-25T19:14:00.887Z,24.91
2022-08-25T19:16:35.486Z,24.86
2022-08-25T19:19:06.412Z,24.80
2022-08-25T19:21:40.062Z,24.76
2022-08-25T19:24:10.689Z,24.73
2022-08-25T19:26:42.036Z,24.69
2022-08-25T19:29:13.916Z,24.66
2022-08-25T19:31:48.673Z,24.63
2022-08-25T19:34:22.193Z,24.58
2022-08-25T19:36:54.215Z,24.50
2022-08-25T19:39:23.730Z,24.35
2022-08-25T19:41:58.003Z,24.24
2022-08-25T19:44:28.237Z,24.16
2022-08-25T19:47:02.550Z,24.11
2022-08-25T19:49:34.905Z,24.07
2022-08-25T19:52:11.634Z,24.06
2022-08-25T19:54:45.373Z,24.01
2022-08-25T19:57:14.465Z,23.98
2022-08-25T19:59:59.928Z,23.97
2022-08-25T20:02:34.858Z,23.96
2022-08-25T20:05:08.468Z,23.94
2022-08-25T20:07:41.072Z,23.91
2022-08-25T20:10:14.033Z,23.86
2022-08-25T20:12:45.522Z,23.81
2022-08-25T20:15:16.602Z,23.78
2022-08-25T20:17:46.494Z,23.72
2022-08-25T20:20:21.718Z,23.66
2022-08-25T20:22:53.356Z,23.59
2022-08-25T20:25:26.083Z,23.53
2022-08-25T20:27:57.560Z,23.49
2022-08-25T20:30:29.661Z,23.45
2022-08-25T20:32:59.181Z,23.43
2022-08-25T20:35:29.467Z,23.42
2022-08-25T20:38:00.604Z,23.38
2022-08-25T20:40:32.815Z,23.35
2022-08-25T20:43:04.812Z,23.30
2022-08-25T20:45:40.102Z,23.25
2022-08-25T20:48:09.501Z,23.19
2022-08-25T20:50:39.047Z,23.18
2022-08-25T20:53:10.243Z,23.18
2022-08-25T20:55:42.689Z,23.17
2022-08-25T20:58:12.445Z,23.14
2022-08-25T21:00:42.430Z,23.13
2022-08-25T21:03:10.022Z,23.09
2022-08-25T21:05:40.646Z,23.05
2022-08-25T21:08:09.531Z,23.01
2022-08-25T21:10:39.450Z,22.97
2022-08-25T21:13:07.312Z,22.94
2022-08-25T21:15:35.287Z,22.92
2022-08-25T21:18:03.474Z,22.88
2022-08-25T21:20:31.217Z,22.86
2022-08-25T21:25:52.101Z,22.79
2022-08-25T21:28:19.681Z,22.77
2022-08-25T21:30:48.928Z,22.76
2022-08-25T21:33:16.948Z,22.73
2022-08-25T21:35:44.944Z,22.70
2022-08-25T21:38:14.844Z,22.69
2022-08-25T21:40:43.906Z,22.67
2022-08-25T21:43:12.848Z,22.65
2022-08-25T21:45:45.782Z,22.64
2022-08-25T21:48:14.826Z,22.62
2022-08-25T21:50:42.601Z,22.60
2022-08-25T21:53:10.428Z,22.57
2022-08-25T21:55:40.057Z,22.55
2022-08-25T21:58:09.562Z,22.52
2022-08-25T22:00:37.119Z,22.48
2022-08-25T22:03:04.959Z,22.46
2022-08-25T22:05:36.612Z,22.42
2022-08-25T22:08:04.604Z,22.35
2022-08-25T22:10:32.280Z,22.28
2022-08-25T22:13:00.962Z,22.21
2022-08-25T22:15:29.038Z,22.10
2022-08-25T22:17:56.836Z,22.03
2022-08-25T22:20:24.485Z,21.98
2022-08-25T22:22:53.308Z,21.92
2022-08-25T22:25:22.945Z,21.88
2022-08-25T22:27:56.494Z,21.83
2022-08-25T22:30:25.382Z,21.82
2022-08-25T22:32:58.294Z,21.81
2022-08-25T22:35:28.223Z,21.81
2022-08-25T22:37:57.889Z,21.78
2022-08-25T22:40:26.530Z,21.73
2022-08-25T22:42:55.899Z,21.70
2022-08-25T22:45:23.551Z,21.68
2022-08-25T22:47:51.549Z,21.65
2022-08-25T22:50:19.933Z,21.61
2022-08-25T22:52:47.982Z,21.57
2022-08-25T22:55:16.273Z,21.49
2022-08-25T22:57:44.841Z,21.45
2022-08-25T23:00:16.018Z,21.42
2022-08-25T23:02:44.956Z,21.40
2022-08-25T23:05:14.503Z,21.38
2022-08-25T23:07:42.259Z,21.38
2022-08-25T23:10:12.277Z,21.36
2022-08-25T23:12:41.178Z,21.32
2022-08-25T23:15:13.337Z,21.25
2022-08-25T23:17:41.897Z,21.20
2022-08-25T23:20:25.753Z,21.14
2022-08-25T23:22:54.022Z,21.08
2022-08-25T23:25:22.179Z,21.04
2022-08-25T23:27:49.902Z,21.01
2022-08-25T23:30:19.529Z,20.97
2022-08-25T23:32:49.147Z,20.95
2022-08-25T23:35:18.122Z,20.93
2022-08-25T23:37:47.020Z,20.96
2022-08-25T23:40:19.373Z,21.02
2022-08-25T23:42:47.522Z,21.04
2022-08-25T23:45:15.611Z,21.04
2022-08-25T23:47:43.255Z,20.96
2022-08-25T23:50:11.254Z,20.91
2022-08-25T23:52:38.795Z,20.80
2022-08-25T23:55:07.818Z,20.73
2022-08-25T23:57:35.694Z,20.69
